Time;durP1;ratioP1;P1;durP2;ratioP2;P2;SDS_P1;SDS_P2;PMS_P1;PMS_P2;Temp;Humidity;BMP_temperature;BMP_pressure;BME280_temperature;BME280_humidity;BME280_pressure;Samples;Min_cycle;Max_cycle;Signal;HPM_P1;HPM_P2
2024/04/01 00:02:00;;;;;;;8.95;1.38;;;;;;;9.69;100.00;95127.75;5039148;28;20086;-63
2024/04/01 00:04:26;;;;;;;4.78;1.23;;;;;;;9.75;100.00;95128.44;5032511;28;20421;-64
2024/04/01 00:06:52;;;;;;;3.72;1.20;;;;;;;9.81;100.00;95115.63;5025805;28;21689;-63
2024/04/01 00:09:17;;;;;;;9.73;1.13;;;;;;;9.86;100.00;95123.63;5038545;28;20037;-63
2024/04/01 00:11:43;;;;;;;3.97;1.10;;;;;;;9.85;100.00;95114.72;5037165;28;20071;-63
2024/04/01 00:14:08;;;;;;;2.65;0.88;;;;;;;9.82;100.00;95115.34;5034614;28;20044;-62
2024/04/01 00:16:34;;;;;;;3.03;0.90;;;;;;;9.81;100.00;95104.81;5035217;28;20122;-63
2024/04/01 00:18:59;;;;;;;4.50;1.02;;;;;;;9.81;100.00;95104.81;5038937;28;20029;-63
2024/04/01 00:21:25;;;;;;;6.03;1.55;;;;;;;9.75;100.00;95101.44;5037010;28;20131;-63
2024/04/01 00:23:53;;;;;;;2.60;1.05;;;;;;;9.82;100.00;95099.13;5033558;28;20109;-63
2024/04/01 00:26:18;;;;;;;5.35;1.17;;;;;;;9.78;100.00;95114.34;5037441;28;20034;-63
2024/04/01 00:28:44;;;;;;;3.25;0.90;;;;;;;9.66;100.00;95112.13;5031123;28;20451;-63
2024/04/01 00:31:10;;;;;;;4.28;1.27;;;;;;;9.55;100.00;95113.47;5037288;28;20044;-62
2024/04/01 00:33:35;;;;;;;2.28;0.85;;;;;;;9.54;100.00;95104.53;5036146;28;20713;-62
2024/04/01 00:36:01;;;;;;;3.15;0.82;;;;;;;9.62;100.00;95103.06;5034831;28;20702;-62
2024/04/01 00:38:27;;;;;;;3.28;1.20;;;;;;;9.59;100.00;95099.03;5031651;28;20472;-62
2024/04/01 00:40:52;;;;;;;4.53;1.30;;;;;;;9.60;100.00;95089.84;5028960;28;20091;-64
2024/04/01 00:43:18;;;;;;;6.63;1.40;;;;;;;9.60;100.00;95080.94;5038380;28;20116;-63
2024/04/01 00:45:46;;;;;;;7.20;2.03;;;;;;;9.59;100.00;95065.84;5031993;28;20053;-62
2024/04/01 00:48:13;;;;;;;4.05;1.05;;;;;;;9.60;100.00;95067.41;5027859;28;20034;-63
2024/04/01 00:50:49;;;;;;;2.65;1.05;;;;;;;9.61;100.00;95060.91;5024495;28;20041;-63
2024/04/01 00:53:17;;;;;;;2.85;0.80;;;;;;;9.70;100.00;95059.09;5027655;28;20041;-63
2024/04/01 00:55:44;;;;;;;4.00;1.50;;;;;;;9.69;100.00;95045.91;5019985;28;20052;-64
2024/04/01 00:58:11;;;;;;;2.88;0.88;;;;;;;9.65;100.00;95045.69;5026609;28;20029;-61
2024/04/01 01:00:37;;;;;;;4.35;1.00;;;;;;;9.63;100.00;95037.88;5019519;28;20066;-63
2024/04/01 01:03:04;;;;;;;2.78;1.20;;;;;;;9.58;100.00;95029.13;5022384;28;20044;-63
2024/04/01 01:05:32;;;;;;;5.88;1.35;;;;;;;9.58;100.00;95018.31;5023731;28;20041;-62
2024/04/01 01:07:58;;;;;;;5.50;1.25;;;;;;;9.58;100.00;95018.31;5017333;28;20034;-61
2024/04/01 01:10:24;;;;;;;2.30;0.80;;;;;;;9.57;100.00;95009.41;5021886;28;20440;-62
2024/04/01 01:12:50;;;;;;;3.75;0.90;;;;;;;9.54;100.00;95003.81;5009097;28;20041;-62
2024/04/01 01:15:16;;;;;;;5.93;1.00;;;;;;;9.46;100.00;94995.31;5018689;28;20041;-62
2024/04/01 01:17:43;;;;;;;7.18;1.20;;;;;;;9.47;100.00;94988.03;5020474;28;20053;-62
2024/04/01 01:20:11;;;;;;;4.35;0.88;;;;;;;9.48;100.00;94976.88;5024064;28;20128;-62
2024/04/01 01:22:41;;;;;;;2.22;0.82;;;;;;;9.52;100.00;94960.06;5021176;28;20505;-63
2024/04/01 01:25:10;;;;;;;4.47;1.10;;;;;;;9.39;100.00;94945.53;5016462;28;20037;-63
2024/04/01 01:27:40;;;;;;;5.72;1.58;;;;;;;9.30;100.00;94954.34;5009039;28;20825;-64
2024/04/01 01:30:16;;;;;;;5.90;1.23;;;;;;;9.30;100.00;94975.13;5023160;28;20046;-62
2024/04/01 01:32:52;;;;;;;2.63;1.00;;;;;;;9.34;100.00;94986.94;5022589;28;20244;-64
2024/04/01 01:35:21;;;;;;;2.90;1.20;;;;;;;9.31;100.00;94974.84;5022164;28;20192;-62
2024/04/01 01:37:48;;;;;;;4.20;1.15;;;;;;;9.28;100.00;94983.53;5015668;28;20492;-62
2024/04/01 01:40:13;;;;;;;3.55;0.98;;;;;;;9.20;100.00;94987.75;5023219;28;20404;-64
2024/04/01 01:42:39;;;;;;;3.85;1.35;;;;;;;9.11;100.00;94998.44;5022876;28;20104;-64
2024/04/01 01:45:06;;;;;;;4.75;1.25;;;;;;;9.00;100.00;94990.88;5014637;28;20037;-61
2024/04/01 01:47:32;;;;;;;5.35;1.25;;;;;;;8.96;100.00;94985.28;5016664;28;20041;-65
2024/04/01 01:49:59;;;;;;;5.38;1.15;;;;;;;8.92;100.00;94976.97;5020596;28;20037;-64
2024/04/01 01:52:25;;;;;;;2.58;1.30;;;;;;;9.04;100.00;94972.97;5014173;28;20045;-61
2024/04/01 01:54:50;;;;;;;5.13;1.05;;;;;;;9.00;100.00;94961.19;5009068;28;20566;-62
2024/04/01 01:57:16;;;;;;;3.35;1.10;;;;;;;9.00;100.00;94966.56;5006642;28;20042;-63
2024/04/01 01:59:42;;;;;;;4.63;1.00;;;;;;;9.04;100.00;94954.06;5014041;28;20037;-64
2024/04/01 02:02:07;;;;;;;3.85;1.30;;;;;;;8.97;100.00;94962.56;5016832;28;20099;-63
2024/04/01 02:04:33;;;;;;;2.90;1.35;;;;;;;8.93;100.00;94964.28;5022832;28;20408;-61
2024/04/01 02:06:59;;;;;;;4.90;1.05;;;;;;;8.91;100.00;94961.88;5017806;28;20038;-63
2024/04/01 02:09:24;;;;;;;2.85;1.23;;;;;;;8.90;100.00;94971.09;5020438;28;20636;-65
2024/04/01 02:11:50;;;;;;;4.55;1.25;;;;;;;8.89;100.00;94976.78;5018070;28;20626;-64
2024/04/01 02:14:16;;;;;;;3.63;1.50;;;;;;;8.92;100.00;94955.38;5017989;28;20501;-65
2024/04/01 02:16:41;;;;;;;4.10;1.13;;;;;;;8.92;100.00;94941.09;5015099;28;20054;-62
2024/04/01 02:19:07;;;;;;;5.00;1.25;;;;;;;8.93;100.00;94904.91;5017914;28;20038;-62
2024/04/01 02:21:33;;;;;;;5.00;1.13;;;;;;;8.91;100.00;94880.09;5011211;28;20149;-64
2024/04/01 02:23:58;;;;;;;4.45;1.00;;;;;;;8.91;100.00;94864.72;5014908;28;20793;-64
2024/04/01 02:26:24;;;;;;;3.30;1.48;;;;;;;8.75;100.00;94860.75;5014298;28;20053;-64
2024/04/01 02:28:49;;;;;;;3.10;0.80;;;;;;;8.76;100.00;94862.34;5022010;28;20029;-63
2024/04/01 02:31:15;;;;;;;2.55;1.00;;;;;;;8.67;100.00;94876.53;5010312;28;20091;-62
2024/04/01 02:33:40;;;;;;;3.25;1.45;;;;;;;8.62;100.00;94908.25;5009650;28;20086;-64
2024/04/01 02:36:06;;;;;;;4.80;1.35;;;;;;;8.52;100.00;94917.28;5018967;28;20443;-62
2024/04/01 02:38:32;;;;;;;3.40;1.30;;;;;;;8.44;100.00;94926.88;5015329;28;20068;-62
2024/04/01 02:40:57;;;;;;;8.48;1.40;;;;;;;8.52;100.00;94934.25;5013109;28;20091;-61
2024/04/01 02:43:23;;;;;;;4.90;1.38;;;;;;;8.49;100.00;94948.34;5013115;28;20125;-65
2024/04/01 02:45:48;;;;;;;4.72;1.52;;;;;;;8.46;100.00;94932.78;5015907;28;20737;-64
2024/04/01 02:48:14;;;;;;;5.28;1.20;;;;;;;8.55;100.00;94919.44;5016022;28;20475;-63
2024/04/01 02:50:39;;;;;;;4.60;1.40;;;;;;;8.58;100.00;94914.22;5013302;28;20152;-61
2024/04/01 02:53:07;;;;;;;5.85;1.63;;;;;;;8.57;100.00;94898.34;5014629;28;20116;-64
2024/04/01 02:55:32;;;;;;;2.83;1.30;;;;;;;8.58;100.00;94889.13;5014294;28;20505;-63
2024/04/01 02:57:58;;;;;;;5.43;1.38;;;;;;;8.32;100.00;94900.41;5005063;28;20127;-62
2024/04/01 03:00:25;;;;;;;4.78;1.50;;;;;;;8.39;100.00;94902.69;5019012;28;20549;-62
2024/04/01 03:02:51;;;;;;;6.18;1.98;;;;;;;8.47;100.00;94893.91;5020323;28;20046;-63
2024/04/01 03:05:17;;;;;;;7.13;1.52;;;;;;;8.39;100.00;94908.09;5015494;28;20045;-61
2024/04/01 03:07:44;;;;;;;5.35;1.88;;;;;;;8.32;100.00;94906.59;5018424;28;20044;-63
2024/04/01 03:10:11;;;;;;;4.53;1.42;;;;;;;8.46;100.00;94874.25;5022792;28;20033;-62
2024/04/01 03:12:43;;;;;;;5.47;1.60;;;;;;;8.56;100.00;94867.06;5016605;28;20087;-61
2024/04/01 03:15:10;;;;;;;4.22;1.90;;;;;;;8.58;100.00;94897.22;5012696;28;20052;-63
2024/04/01 03:17:36;;;;;;;5.03;1.67;;;;;;;8.51;100.00;94886.03;5014554;28;20046;-63
2024/04/01 03:20:02;;;;;;;5.47;1.60;;;;;;;8.61;100.00;94866.97;5016838;28;20069;-63
2024/04/01 03:22:28;;;;;;;4.45;1.38;;;;;;;8.65;100.00;94865.25;5009963;28;20662;-64
2024/04/01 03:24:54;;;;;;;3.17;1.38;;;;;;;8.73;100.00;94879.16;5015890;28;20041;-63
2024/04/01 03:27:20;;;;;;;6.57;1.70;;;;;;;8.67;100.00;94886.56;5007442;28;20087;-64
2024/04/01 03:29:46;;;;;;;6.18;1.55;;;;;;;8.68;100.00;94904.31;5022132;28;20037;-64
2024/04/01 03:32:11;;;;;;;5.90;1.40;;;;;;;8.68;100.00;94875.47;5020699;28;20509;-64
2024/04/01 03:34:37;;;;;;;4.97;1.40;;;;;;;8.75;100.00;94868.84;5020980;28;20530;-64
2024/04/01 03:37:03;;;;;;;7.85;2.10;;;;;;;8.68;100.00;94907.84;5009120;28;20050;-63
2024/04/01 03:39:30;;;;;;;6.13;1.67;;;;;;;8.58;100.00;94900.75;5016846;28;20037;-61
2024/04/01 03:41:56;;;;;;;3.38;1.52;;;;;;;8.58;100.00;94881.84;5019398;28;20061;-64
2024/04/01 03:44:22;;;;;;;8.60;1.95;;;;;;;8.56;100.00;94911.00;5018903;28;20049;-63
2024/04/01 03:46:48;;;;;;;7.18;1.67;;;;;;;8.50;100.00;94920.28;5015866;28;20052;-64
2024/04/01 03:49:13;;;;;;;4.82;1.70;;;;;;;8.53;100.00;94918.91;5020940;28;20029;-64
2024/04/01 03:51:39;;;;;;;5.00;1.40;;;;;;;8.60;100.00;94911.22;5018741;28;20044;-62
2024/04/01 03:54:05;;;;;;;7.50;1.67;;;;;;;8.55;100.00;94911.34;5023595;28;20116;-62
2024/04/01 03:56:30;;;;;;;3.55;1.52;;;;;;;8.61;100.00;94912.81;5016901;28;20042;-63
2024/04/01 03:58:56;;;;;;;5.68;2.10;;;;;;;8.59;100.00;94907.72;5022710;28;20095;-63
2024/04/01 04:01:22;;;;;;;6.13;2.22;;;;;;;8.65;100.00;94913.00;5015996;28;20041;-62
2024/04/01 04:03:47;;;;;;;3.85;1.65;;;;;;;8.64;100.00;94917.63;5019528;28;20048;-62
2024/04/01 04:06:13;;;;;;;2.95;1.20;;;;;;;8.66;100.00;94898.44;5017874;28;20044;-62
2024/04/01 04:08:39;;;;;;;5.00;2.10;;;;;;;8.59;100.00;94875.34;5020783;28;20044;-61
2024/04/01 04:11:07;;;;;;;4.15;1.33;;;;;;;8.65;100.00;94892.25;5019095;28;20037;-63
2024/04/01 04:13:36;;;;;;;10.90;1.70;;;;;;;8.60;100.00;94905.84;5015118;28;20037;-61
2024/04/01 04:16:02;;;;;;;5.05;1.10;;;;;;;8.54;100.00;94890.84;5019346;28;20509;-62
2024/04/01 04:18:28;;;;;;;5.20;1.45;;;;;;;8.56;100.00;94869.78;5018508;28;20037;-63
2024/04/01 04:20:57;;;;;;;3.65;1.20;;;;;;;8.62;100.00;94875.88;5013828;28;20390;-62
2024/04/01 04:23:23;;;;;;;3.95;1.10;;;;;;;8.60;100.00;94873.47;5022464;28;20095;-64
2024/04/01 04:25:49;;;;;;;4.00;1.55;;;;;;;8.59;100.00;94886.16;5019242;28;20048;-63
2024/04/01 04:28:15;;;;;;;4.90;1.63;;;;;;;8.58;100.00;94887.25;5010789;28;20038;-63
2024/04/01 04:30:40;;;;;;;4.22;1.60;;;;;;;8.65;100.00;94899.53;5017601;28;20048;-65
2024/04/01 04:33:06;;;;;;;5.85;1.92;;;;;;;8.55;100.00;94893.25;5017429;28;20045;-62
2024/04/01 04:35:32;;;;;;;4.65;1.65;;;;;;;8.60;100.00;94889.66;5016285;28;20069;-62
2024/04/01 04:37:57;;;;;;;4.43;1.77;;;;;;;8.62;100.00;94873.94;5022149;28;20045;-61
2024/04/01 04:40:24;;;;;;;4.28;2.05;;;;;;;8.59;100.00;94874.56;5016038;28;20519;-62
2024/04/01 04:42:50;;;;;;;6.85;2.03;;;;;;;8.55;100.00;94878.97;5014023;28;20425;-63
2024/04/01 04:45:17;;;;;;;4.75;1.73;;;;;;;8.58;100.00;94895.34;5025090;28;20052;-63
2024/04/01 04:47:43;;;;;;;4.22;2.00;;;;;;;8.62;100.00;94921.72;5020685;28;20244;-64
2024/04/01 04:50:08;;;;;;;3.75;1.95;;;;;;;8.53;100.00;94914.34;5020353;28;20044;-63
2024/04/01 04:52:34;;;;;;;3.65;1.80;;;;;;;8.57;100.00;94922.63;5026320;28;20045;-63
2024/04/01 04:55:00;;;;;;;3.70;1.67;;;;;;;8.61;100.00;94945.19;5027359;28;20033;-64
2024/04/01 04:57:26;;;;;;;4.22;1.80;;;;;;;8.67;100.00;94943.97;5017526;28;20033;-63
2024/04/01 04:59:51;;;;;;;4.70;1.70;;;;;;;8.66;100.00;94939.69;5020038;28;20037;-64
2024/04/01 05:02:17;;;;;;;4.80;1.95;;;;;;;8.62;100.00;94946.78;5017316;28;20497;-63
2024/04/01 05:04:42;;;;;;;4.93;1.90;;;;;;;8.61;100.00;94955.97;5024062;28;20404;-64
2024/04/01 05:07:08;;;;;;;3.97;2.13;;;;;;;8.56;100.00;94970.34;5019084;28;20034;-61
2024/04/01 05:09:35;;;;;;;4.93;2.40;;;;;;;8.57;100.00;94984.66;5018638;28;20041;-64
2024/04/01 05:12:03;;;;;;;5.10;2.22;;;;;;;8.63;100.00;94983.47;5022230;28;20091;-63
2024/04/01 05:14:29;;;;;;;5.45;2.47;;;;;;;8.50;100.00;94985.00;5018836;28;20045;-63
2024/04/01 05:16:55;;;;;;;4.95;2.40;;;;;;;8.48;100.00;94991.81;5018588;28;20042;-63
2024/04/01 05:19:21;;;;;;;6.90;2.80;;;;;;;8.50;100.00;94981.50;5018652;28;20124;-63
2024/04/01 05:21:47;;;;;;;11.52;3.40;;;;;;;8.44;100.00;95016.66;5016926;28;20053;-63
2024/04/01 05:24:15;;;;;;;8.55;3.30;;;;;;;8.39;100.00;95018.63;5023960;28;20046;-61
2024/04/01 05:26:41;;;;;;;6.25;3.10;;;;;;;8.39;100.00;95029.44;5017042;28;20045;-63
2024/04/01 05:29:07;;;;;;;6.03;3.10;;;;;;;8.46;100.00;95036.06;5010286;28;20045;-63
2024/04/01 05:31:34;;;;;;;5.93;3.40;;;;;;;8.43;100.00;95062.78;5015371;28;20040;-64
2024/04/01 05:34:01;;;;;;;5.07;2.75;;;;;;;8.34;100.00;95065.38;5020618;28;20064;-64
2024/04/01 05:36:28;;;;;;;5.35;2.90;;;;;;;8.26;100.00;95090.31;5017701;28;20116;-63
2024/04/01 05:38:54;;;;;;;6.30;3.05;;;;;;;8.24;100.00;95093.28;5024091;28;20579;-62
2024/04/01 05:41:21;;;;;;;6.25;2.67;;;;;;;8.20;100.00;95070.72;5017248;28;20041;-63
2024/04/01 05:43:47;;;;;;;5.40;2.40;;;;;;;8.25;100.00;95057.16;5020479;28;20052;-63
2024/04/01 05:46:13;;;;;;;3.70;1.92;;;;;;;8.26;100.00;95037.19;5012468;28;20045;-62
2024/04/01 05:48:39;;;;;;;5.30;1.95;;;;;;;8.19;100.00;95048.34;5012470;28;20130;-61
2024/04/01 05:51:05;;;;;;;5.63;2.47;;;;;;;8.19;100.00;95051.03;5004781;28;20783;-62
2024/04/01 05:53:30;;;;;;;5.55;2.25;;;;;;;8.19;100.00;95061.81;5020086;28;20121;-62
2024/04/01 05:55:56;;;;;;;3.65;1.80;;;;;;;8.12;100.00;95068.69;5011699;28;20054;-63
2024/04/01 05:58:21;;;;;;;5.35;2.08;;;;;;;8.00;100.00;95085.31;5009348;28;20073;-62
2024/04/01 06:00:47;;;;;;;4.47;2.08;;;;;;;8.04;100.00;95089.03;5008034;28;20102;-62
2024/04/01 06:03:13;;;;;;;6.20;1.73;;;;;;;8.08;100.00;95084.66;5019328;28;20038;-63
2024/04/01 06:05:39;;;;;;;3.25;2.08;;;;;;;8.13;100.00;95075.66;5018585;28;20721;-62
2024/04/01 06:08:05;;;;;;;3.85;1.90;;;;;;;8.08;100.00;95073.88;5021974;28;20276;-64
2024/04/01 06:10:30;;;;;;;5.32;1.80;;;;;;;8.07;100.00;95077.63;5009414;28;20049;-64
2024/04/01 06:12:56;;;;;;;3.28;1.80;;;;;;;8.06;100.00;95084.94;5016512;28;20045;-64
2024/04/01 06:15:22;;;;;;;6.57;2.00;;;;;;;8.07;100.00;95085.72;5021056;28;20041;-62
2024/04/01 06:17:50;;;;;;;4.40;1.80;;;;;;;8.09;100.00;95072.75;5009092;28;20044;-62
2024/04/01 06:20:16;;;;;;;2.75;1.70;;;;;;;8.06;100.00;95076.03;5013938;28;20038;-63
2024/04/01 06:22:42;;;;;;;3.47;1.88;;;;;;;8.02;100.00;95086.63;5012705;28;20130;-63
2024/04/01 06:25:08;;;;;;;5.03;1.90;;;;;;;8.04;100.00;95097.09;5010081;28;20092;-62
2024/04/01 06:27:33;;;;;;;3.17;1.65;;;;;;;7.91;100.00;95112.09;5011433;28;20094;-62
2024/04/01 06:29:59;;;;;;;3.10;1.52;;;;;;;7.86;100.00;95148.00;5009641;28;20754;-63
2024/04/01 06:32:24;;;;;;;2.28;1.35;;;;;;;7.91;100.00;95156.00;5014810;28;20077;-63
2024/04/01 06:34:51;;;;;;;4.40;1.42;;;;;;;7.89;100.00;95155.50;5018036;28;20049;-63
2024/04/01 06:37:17;;;;;;;3.15;1.23;;;;;;;7.90;100.00;95169.78;5014922;28;20417;-64
2024/04/01 06:39:43;;;;;;;1.70;1.08;;;;;;;7.87;100.00;95163.06;5016915;28;20805;-65
2024/04/01 06:42:08;;;;;;;2.30;1.10;;;;;;;7.92;100.00;95156.81;5017444;28;20510;-62
2024/04/01 06:44:35;;;;;;;3.92;1.00;;;;;;;7.89;100.00;95163.56;5017429;28;20118;-62
2024/04/01 06:47:00;;;;;;;0.95;0.60;;;;;;;7.93;100.00;95174.59;5013662;28;20048;-64
2024/04/01 06:49:26;;;;;;;0.80;0.50;;;;;;;7.90;100.00;95165.19;5021418;28;20029;-62
2024/04/01 06:51:51;;;;;;;1.30;0.65;;;;;;;7.97;100.00;95177.50;5010225;28;20872;-62
2024/04/01 06:54:17;;;;;;;0.45;0.40;;;;;;;7.93;100.00;95177.28;5020994;28;20045;-63
2024/04/01 06:56:42;;;;;;;1.98;0.60;;;;;;;7.99;100.00;95176.13;5013921;28;20881;-62
2024/04/01 06:59:08;;;;;;;2.42;0.60;;;;;;;7.96;100.00;95175.91;5020159;28;20256;-63
2024/04/01 07:01:33;;;;;;;0.73;0.30;;;;;;;7.91;100.00;95199.13;5008461;28;20042;-63
2024/04/01 07:03:59;;;;;;;1.48;0.38;;;;;;;7.82;100.00;95176.63;5020698;28;20048;-64
2024/04/01 07:06:25;;;;;;;1.10;0.40;;;;;;;7.77;100.00;95164.00;5010325;28;20128;-64
2024/04/01 07:08:51;;;;;;;0.40;0.30;;;;;;;7.72;100.00;95169.44;5019428;28;20649;-63
2024/04/01 07:11:17;;;;;;;1.95;0.30;;;;;;;7.78;100.00;95168.28;5017867;28;20052;-62
2024/04/01 07:13:43;;;;;;;1.23;0.60;;;;;;;7.72;100.00;95180.22;5021935;28;20124;-61
2024/04/01 07:16:08;;;;;;;1.67;0.20;;;;;;;7.74;100.00;95207.66;5022230;28;20044;-62
2024/04/01 07:18:35;;;;;;;0.85;0.30;;;;;;;7.82;100.00;95219.72;5017834;28;20033;-63
2024/04/01 07:21:03;;;;;;;1.00;0.20;;;;;;;7.78;100.00;95207.91;5011280;28;20045;-63
2024/04/01 07:23:28;;;;;;;0.20;0.20;;;;;;;7.79;100.00;95198.72;5020850;28;20064;-64
2024/04/01 07:25:54;;;;;;;0.15;0.15;;;;;;;7.73;100.00;95224.13;5011674;28;20072;-63
2024/04/01 07:28:20;;;;;;;0.28;0.28;;;;;;;7.79;100.00;95239.97;5014760;28;20065;-64
2024/04/01 07:30:45;;;;;;;0.40;0.20;;;;;;;7.72;100.00;95250.28;5012394;28;20061;-64
2024/04/01 07:33:11;;;;;;;0.25;0.20;;;;;;;7.76;100.00;95251.31;5016645;28;20064;-64
2024/04/01 07:35:36;;;;;;;2.40;0.25;;;;;;;7.71;100.00;95239.78;5012434;28;20587;-63
2024/04/01 07:38:02;;;;;;;0.75;0.17;;;;;;;7.76;100.00;95237.00;5018174;28;20048;-64
2024/04/01 07:40:28;;;;;;;0.45;0.20;;;;;;;7.90;100.00;95235.25;5012026;28;20493;-63
2024/04/01 07:42:53;;;;;;;0.73;0.30;;;;;;;7.85;100.00;95243.38;5010800;28;20045;-64
2024/04/01 07:45:19;;;;;;;0.10;0.10;;;;;;;7.86;100.00;95266.56;5016081;28;20539;-64
2024/04/01 07:47:45;;;;;;;0.20;0.20;;;;;;;7.84;100.00;95276.81;5008931;28;20057;-63
2024/04/01 07:50:11;;;;;;;0.98;0.28;;;;;;;7.67;100.00;95272.66;5018964;28;20084;-63
2024/04/01 07:52:36;;;;;;;0.15;0.15;;;;;;;7.70;100.00;95279.38;5011741;28;20136;-62
2024/04/01 07:55:02;;;;;;;0.10;0.10;;;;;;;7.84;100.00;95287.59;5012936;28;20049;-64
2024/04/01 07:57:31;;;;;;;1.10;0.10;;;;;;;7.78;100.00;95300.28;5015886;28;20053;-63
2024/04/01 07:59:57;;;;;;;0.75;0.35;;;;;;;7.73;100.00;95299.53;5016738;28;20033;-63
2024/04/01 08:02:23;;;;;;;0.95;0.20;;;;;;;7.76;100.00;95307.88;5016741;28;20119;-64
2024/04/01 08:04:49;;;;;;;0.40;0.15;;;;;;;7.76;100.00;95315.16;5021674;28;20049;-62
2024/04/01 08:07:15;;;;;;;0.00;0.00;;;;;;;7.83;100.00;95317.50;5005875;28;20041;-62
2024/04/01 08:09:41;;;;;;;0.22;0.20;;;;;;;7.88;100.00;95334.41;5010260;28;20387;-62
2024/04/01 08:12:08;;;;;;;0.20;0.15;;;;;;;7.83;100.00;95336.34;5019466;28;20131;-66
2024/04/01 08:14:34;;;;;;;0.13;0.08;;;;;;;7.89;100.00;95348.72;5016736;28;20073;-63
2024/04/01 08:16:59;;;;;;;0.52;0.15;;;;;;;7.83;100.00;95352.53;5018190;28;20041;-63
2024/04/01 08:19:26;;;;;;;0.43;0.10;;;;;;;7.83;100.00;95363.31;5012863;28;20084;-62
2024/04/01 08:21:52;;;;;;;0.13;0.10;;;;;;;7.93;100.00;95369.41;5012984;28;20049;-63
2024/04/01 08:24:18;;;;;;;0.85;0.10;;;;;;;7.97;100.00;95368.84;5017929;28;20042;-64
2024/04/01 08:26:44;;;;;;;0.30;0.20;;;;;;;7.96;100.00;95378.00;5022601;28;20049;-62
2024/04/01 08:29:10;;;;;;;0.25;0.22;;;;;;;8.00;100.00;95376.34;5013446;28;20091;-63
2024/04/01 08:31:35;;;;;;;0.10;0.10;;;;;;;8.02;100.00;95369.59;5028912;28;20049;-64
2024/04/01 08:34:01;;;;;;;0.35;0.22;;;;;;;7.90;100.00;95377.25;5018205;28;20068;-63
2024/04/01 08:36:26;;;;;;;0.20;0.20;;;;;;;7.94;100.00;95397.16;5029164;28;20040;-63
2024/04/01 08:38:52;;;;;;;0.10;0.10;;;;;;;8.10;100.00;95405.91;5015212;28;20048;-64
2024/04/01 08:41:24;;;;;;;0.20;0.20;;;;;;;8.10;100.00;95407.81;5013829;28;20120;-63
2024/04/01 08:44:04;;;;;;;2.05;0.35;;;;;;;7.96;100.00;95407.66;5023785;28;20525;-62
2024/04/01 08:46:33;;;;;;;0.20;0.20;;;;;;;8.07;100.00;95406.47;5014958;28;20116;-63
2024/04/01 08:49:01;;;;;;;1.13;0.32;;;;;;;8.00;100.00;95414.09;5015035;28;20038;-63
2024/04/01 08:51:29;;;;;;;0.80;0.20;;;;;;;7.92;100.00;95418.19;5020668;28;20037;-64
2024/04/01 08:54:02;;;;;;;0.43;0.20;;;;;;;8.00;100.00;95411.41;5014254;28;20110;-64
2024/04/01 08:56:30;;;;;;;0.40;0.20;;;;;;;7.83;100.00;95418.00;5020141;28;20678;-64
2024/04/01 08:58:57;;;;;;;0.10;0.10;;;;;;;7.82;100.00;95421.78;5014953;28;20098;-63
2024/04/01 09:01:23;;;;;;;0.13;0.13;;;;;;;7.77;100.00;95419.94;5020273;28;20045;-64
2024/04/01 09:03:49;;;;;;;0.30;0.20;;;;;;;7.77;100.00;95419.13;5015867;28;20046;-63
2024/04/01 09:06:19;;;;;;;0.30;0.20;;;;;;;7.88;100.00;95419.84;5013624;28;20391;-62
2024/04/01 09:08:46;;;;;;;0.25;0.20;;;;;;;7.91;100.00;95411.19;5015932;28;20060;-64
2024/04/01 09:11:12;;;;;;;0.45;0.20;;;;;;;7.93;100.00;95414.41;5015795;28;20056;-63
2024/04/01 09:13:38;;;;;;;1.13;0.35;;;;;;;7.92;100.00;95418.19;5014943;28;20111;-62
2024/04/01 09:16:05;;;;;;;0.13;0.13;;;;;;;8.02;100.00;95420.81;5025144;28;20045;-65
2024/04/01 09:18:36;;;;;;;0.10;0.10;;;;;;;8.13;100.00;95420.69;5018384;28;20505;-63
2024/04/01 09:21:04;;;;;;;0.10;0.10;;;;;;;8.13;100.00;95421.50;5014573;28;20128;-65
2024/04/01 09:23:31;;;;;;;0.75;0.20;;;;;;;8.29;100.00;95416.75;5017748;28;20449;-63
2024/04/01 09:25:58;;;;;;;0.43;0.20;;;;;;;8.28;100.00;95420.56;5017829;28;20049;-64
2024/04/01 09:28:24;;;;;;;0.32;0.10;;;;;;;8.32;100.00;95435.06;5017879;28;20108;-64
2024/04/01 09:30:50;;;;;;;3.42;1.25;;;;;;;8.33;100.00;95441.25;5022298;28;20041;-64
2024/04/01 09:33:16;;;;;;;1.30;0.52;;;;;;;8.53;100.00;95444.88;5020356;28;20045;-62
2024/04/01 09:35:41;;;;;;;1.08;0.30;;;;;;;8.52;100.00;95467.50;5020366;28;20056;-64
2024/04/01 09:38:07;;;;;;;2.28;0.60;;;;;;;8.59;100.00;95471.50;5015107;28;20048;-64
2024/04/01 09:40:33;;;;;;;1.75;0.70;;;;;;;8.78;100.00;95480.75;5021585;28;20574;-64
2024/04/01 09:43:00;;;;;;;2.38;1.00;;;;;;;9.00;100.00;95479.44;5013507;28;20116;-62
2024/04/01 09:45:28;;;;;;;6.53;2.72;;;;;;;9.28;100.00;95482.34;5017116;28;20333;-63
2024/04/01 09:47:54;;;;;;;1.90;1.10;;;;;;;9.59;100.00;95485.41;5021983;28;20103;-63
2024/04/01 09:50:21;;;;;;;0.98;0.47;;;;;;;9.84;100.00;95482.63;5018569;28;20045;-63
2024/04/01 09:52:46;;;;;;;1.52;0.70;;;;;;;9.66;100.00;95481.53;5025417;28;20077;-61
2024/04/01 09:55:24;;;;;;;1.10;0.73;;;;;;;9.52;100.00;95493.09;5024246;28;20460;-63
2024/04/01 09:58:14;;;;;;;0.30;0.20;;;;;;;9.50;100.00;95487.97;5018422;28;20050;-64
2024/04/01 10:00:52;;;;;;;0.52;0.30;;;;;;;9.19;100.00;95488.38;5021007;28;20122;-64
2024/04/01 10:03:42;;;;;;;0.35;0.10;;;;;;;9.14;100.00;95490.34;5015692;28;20104;-64
2024/04/01 10:06:24;;;;;;;0.63;0.40;;;;;;;9.15;100.00;95503.56;5011371;28;20046;-64
2024/04/01 10:09:29;;;;;;;1.25;0.75;;;;;;;9.08;100.00;95511.19;5021212;28;20673;-64
2024/04/01 10:12:25;;;;;;;0.30;0.30;;;;;;;8.91;100.00;95517.84;4975953;28;20065;-61
2024/04/01 10:15:17;;;;;;;0.70;0.40;;;;;;;8.82;100.00;95498.78;5020713;28;20421;-63
2024/04/01 10:18:09;;;;;;;0.50;0.20;;;;;;;8.84;100.00;95504.69;5018586;28;20056;-64
2024/04/01 10:21:04;;;;;;;1.13;0.25;;;;;;;8.89;100.00;95520.03;5012741;28;20495;-64
2024/04/01 10:23:51;;;;;;;0.22;0.22;;;;;;;9.23;100.00;95518.31;4996569;28;20057;-64
2024/04/01 10:26:40;;;;;;;0.70;0.25;;;;;;;9.19;100.00;95514.56;5013016;28;20048;-62
2024/04/01 10:29:44;;;;;;;1.33;0.20;;;;;;;9.41;100.00;95518.63;5006346;28;20501;-65
2024/04/01 10:32:30;;;;;;;0.38;0.25;;;;;;;9.52;100.00;95536.31;5006061;28;20037;-64
2024/04/01 10:35:39;;;;;;;0.30;0.30;;;;;;;9.21;100.00;95555.56;5015793;28;20049;-63
2024/04/01 10:38:33;;;;;;;0.08;0.08;;;;;;;9.05;100.00;95568.44;5013748;28;20573;-62
2024/04/01 10:41:48;;;;;;;0.10;0.10;;;;;;;9.14;100.00;95574.03;5018330;28;20045;-63
2024/04/01 10:44:23;;;;;;;0.25;0.25;;;;;;;9.03;100.00;95570.66;5003782;28;20061;-64
2024/04/01 10:47:26;;;;;;;0.90;0.22;;;;;;;8.87;100.00;95592.38;5014001;28;20527;-62
2024/04/01 10:50:12;;;;;;;0.10;0.10;;;;;;;8.78;100.00;95589.50;5018274;28;20041;-63
2024/04/01 10:52:54;;;;;;;0.43;0.20;;;;;;;9.08;100.00;95601.09;5012911;28;20052;-63
2024/04/01 10:55:56;;;;;;;0.45;0.15;;;;;;;9.08;100.00;95600.28;5013205;28;20045;-63
2024/04/01 10:58:44;;;;;;;0.65;0.20;;;;;;;8.98;100.00;95606.59;5016309;28;20038;-62
2024/04/01 11:01:24;;;;;;;0.20;0.20;;;;;;;9.09;100.00;95624.31;5013336;28;20069;-62
2024/04/01 11:03:59;;;;;;;0.10;0.10;;;;;;;9.27;100.00;95621.13;5016234;28;20091;-62
2024/04/01 11:06:43;;;;;;;0.35;0.15;;;;;;;9.10;100.00;95619.69;5014712;28;20079;-64
2024/04/01 11:09:41;;;;;;;0.10;0.10;;;;;;;9.29;100.00;95633.25;5017828;28;20038;-64
2024/04/01 11:12:12;;;;;;;0.77;0.20;;;;;;;9.24;100.00;95649.53;5011797;28;20048;-63
2024/04/01 11:14:39;;;;;;;0.00;0.00;;;;;;;9.21;100.00;95664.41;5014812;28;20077;-62
2024/04/01 11:17:07;;;;;;;0.00;0.00;;;;;;;9.31;100.00;95687.81;5012983;28;20077;-64
2024/04/01 11:19:57;;;;;;;0.10;0.10;;;;;;;9.43;100.00;95692.81;5012934;28;20045;-61
2024/04/01 11:23:01;;;;;;;0.10;0.00;;;;;;;9.11;100.00;95688.81;5012621;28;20091;-63
2024/04/01 11:25:53;;;;;;;0.28;0.10;;;;;;;8.74;100.00;95720.69;5008648;28;20440;-64
2024/04/01 11:28:56;;;;;;;0.08;0.08;;;;;;;8.57;100.00;95727.28;5017529;28;20064;-64
2024/04/01 11:31:24;;;;;;;0.00;0.00;;;;;;;8.30;100.00;95720.38;5026039;28;20037;-63
2024/04/01 11:34:01;;;;;;;0.15;0.10;;;;;;;8.33;100.00;95752.19;5012306;28;20033;-63
2024/04/01 11:36:37;;;;;;;0.10;0.10;;;;;;;8.28;100.00;95749.53;5020280;28;20037;-61
2024/04/01 11:39:10;;;;;;;0.32;0.20;;;;;;;8.38;100.00;95745.16;5031817;28;20037;-62
2024/04/01 11:41:38;;;;;;;0.00;0.00;;;;;;;8.67;100.00;95731.00;5018461;28;20060;-61
2024/04/01 11:44:05;;;;;;;0.65;0.10;;;;;;;8.89;100.00;95727.88;5009880;28;20084;-62